createdAt,value
2023-05-14T00:00:58.603Z,3.50
2023-05-14T00:02:02.251Z,4.00
2023-05-14T00:03:06.605Z,3.25
2023-05-14T00:04:10.533Z,3.50
2023-05-14T00:05:13.875Z,4.00
2023-05-14T00:06:17.674Z,4.00
2023-05-14T00:07:21.073Z,3.50
2023-05-14T00:08:24.548Z,2.75
2023-05-14T00:09:28.359Z,5.00
2023-05-14T00:10:31.913Z,5.50
2023-05-14T00:11:35.527Z,4.25
2023-05-14T00:12:39.019Z,4.75
2023-05-14T00:13:42.520Z,4.00
2023-05-14T00:14:46.122Z,4.50
2023-05-14T00:15:50.184Z,3.75
2023-05-14T00:16:53.721Z,4.75
2023-05-14T00:17:57.400Z,5.00
2023-05-14T00:19:00.788Z,5.00
2023-05-14T00:20:04.570Z,5.00
2023-05-14T00:21:08.285Z,4.00
2023-05-14T00:22:12.464Z,5.00
2023-05-14T00:23:16.271Z,5.00
2023-05-14T00:24:20.366Z,5.50
2023-05-14T00:25:24.074Z,5.50
2023-05-14T00:26:27.855Z,4.75
2023-05-14T00:27:31.821Z,5.00
2023-05-14T00:28:35.569Z,5.00
2023-05-14T00:29:39.040Z,5.75
2023-05-14T00:30:42.646Z,5.75
2023-05-14T00:31:46.586Z,6.00
2023-05-14T00:32:50.350Z,6.50
2023-05-14T00:33:54.136Z,6.50
2023-05-14T00:34:58.019Z,6.00
2023-05-14T00:36:02.134Z,5.50
2023-05-14T00:37:05.718Z,6.00
2023-05-14T00:38:09.632Z,6.25
2023-05-14T00:39:13.204Z,6.00
2023-05-14T00:40:16.458Z,6.00
2023-05-14T00:41:19.831Z,6.00
2023-05-14T00:42:23.580Z,6.25
2023-05-14T00:43:27.366Z,6.00
2023-05-14T00:44:31.582Z,6.50
2023-05-14T00:45:35.579Z,6.50
2023-05-14T00:46:39.639Z,6.50
2023-05-14T00:47:43.330Z,6.00
2023-05-14T00:48:47.065Z,6.00
2023-05-14T00:49:50.781Z,5.00
2023-05-14T00:50:54.145Z,4.75
2023-05-14T00:51:57.742Z,5.50
2023-05-14T00:53:01.122Z,4.50
2023-05-14T00:54:04.414Z,5.25
2023-05-14T00:55:07.805Z,5.25
2023-05-14T00:56:11.590Z,5.50
2023-05-14T00:57:15.088Z,5.50
2023-05-14T00:58:18.470Z,5.00
2023-05-14T00:59:21.958Z,5.00
2023-05-14T01:00:25.347Z,5.00
2023-05-14T01:01:29.974Z,5.50
2023-05-14T01:02:33.338Z,4.00
2023-05-14T01:03:40.192Z,2.50
2023-05-14T01:04:43.989Z,2.75
2023-05-14T01:05:47.399Z,4.00
2023-05-14T01:06:51.401Z,3.75
2023-05-14T01:07:55.092Z,3.00
2023-05-14T01:08:58.889Z,3.25
2023-05-14T01:10:02.690Z,3.50
2023-05-14T01:11:06.103Z,4.00
2023-05-14T01:12:09.599Z,3.50
2023-05-14T01:13:13.161Z,3.25
2023-05-14T01:14:16.685Z,3.50
2023-05-14T01:15:20.649Z,3.00
2023-05-14T01:16:24.605Z,3.00
2023-05-14T01:17:28.367Z,4.00
2023-05-14T01:18:31.832Z,3.75
2023-05-14T01:19:35.107Z,2.75
2023-05-14T01:20:38.708Z,1.75
2023-05-14T01:21:42.088Z,1.00
2023-05-14T01:22:45.606Z,1.00
2023-05-14T01:23:49.697Z,1.50
2023-05-14T01:24:53.577Z,2.00
2023-05-14T01:25:56.863Z,1.50
2023-05-14T01:27:00.765Z,1.25
2023-05-14T01:28:04.567Z,0.00
2023-05-14T01:29:08.146Z,0.50
2023-05-14T01:30:11.740Z,1.00
2023-05-14T01:31:15.015Z,0.75
2023-05-14T01:32:18.780Z,0.00
2023-05-14T01:33:22.329Z,0.00
2023-05-14T01:34:26.116Z,0.00
2023-05-14T01:35:29.794Z,1.00
2023-05-14T01:36:33.369Z,0.00
2023-05-14T01:37:37.081Z,0.00
2023-05-14T01:38:40.586Z,0.50
2023-05-14T01:39:44.159Z,1.00
2023-05-14T01:40:47.754Z,1.00
2023-05-14T01:41:51.451Z,0.00
2023-05-14T01:42:55.722Z,0.25
2023-05-14T01:43:59.247Z,1.00
2023-05-14T01:45:03.787Z,0.25
2023-05-14T01:46:08.095Z,1.00
2023-05-14T01:47:11.679Z,0.50
2023-05-14T01:48:15.867Z,0.00
2023-05-14T01:49:19.579Z,0.50
2023-05-14T01:50:23.608Z,1.00
2023-05-14T01:51:27.364Z,1.00
2023-05-14T01:52:33.015Z,0.50
2023-05-14T01:53:37.330Z,0.75
2023-05-14T01:54:41.098Z,0.75
2023-05-14T01:55:44.788Z,0.50
2023-05-14T01:56:48.280Z,0.50
2023-05-14T01:57:51.872Z,0.00
2023-05-14T01:58:55.491Z,0.00
2023-05-14T01:59:59.358Z,0.00
2023-05-14T02:01:03.004Z,0.00
2023-05-14T02:02:05.932Z,0.00
2023-05-14T02:03:09.568Z,0.00
2023-05-14T02:04:13.319Z,0.50
2023-05-14T02:05:16.817Z,0.00
2023-05-14T02:06:20.128Z,0.00
2023-05-14T02:07:23.411Z,0.00
2023-05-14T02:08:26.666Z,0.00
2023-05-14T02:09:30.718Z,0.00
2023-05-14T02:10:34.963Z,0.00
2023-05-14T02:11:38.773Z,0.50
2023-05-14T02:12:42.162Z,0.25
2023-05-14T02:13:45.848Z,0.00
2023-05-14T02:14:49.438Z,0.00
2023-05-14T02:15:53.160Z,0.00
2023-05-14T02:16:56.634Z,0.00
2023-05-14T02:18:00.256Z,0.50
2023-05-14T02:19:03.953Z,0.50
2023-05-14T02:20:07.301Z,0.00
2023-05-14T02:21:10.895Z,0.50
2023-05-14T02:22:14.686Z,0.00
2023-05-14T02:23:19.496Z,0.00
2023-05-14T02:24:22.884Z,0.00
2023-05-14T02:25:27.088Z,0.00
2023-05-14T02:26:30.791Z,0.00
2023-05-14T02:27:34.704Z,0.75
2023-05-14T02:28:38.908Z,0.25
2023-05-14T02:29:42.609Z,0.00
2023-05-14T02:30:46.802Z,0.50
2023-05-14T02:31:51.268Z,0.00
2023-05-14T02:32:55.264Z,0.00
2023-05-14T02:33:59.030Z,0.00
2023-05-14T02:35:02.497Z,0.00
2023-05-14T02:36:06.092Z,0.00
2023-05-14T02:37:10.192Z,0.50
2023-05-14T02:38:14.397Z,1.00
2023-05-14T02:39:17.975Z,1.00
2023-05-14T02:40:21.875Z,1.50
2023-05-14T02:41:25.888Z,1.00
2023-05-14T02:42:29.785Z,1.00
2023-05-14T02:43:33.277Z,1.00
2023-05-14T02:44:36.787Z,1.00
2023-05-14T02:45:40.668Z,1.00
2023-05-14T02:46:44.723Z,0.50
2023-05-14T02:47:48.256Z,1.00
2023-05-14T02:48:52.652Z,1.00
2023-05-14T02:49:56.358Z,0.25
2023-05-14T02:51:00.576Z,1.00
2023-05-14T02:52:04.767Z,0.50
2023-05-14T02:53:08.692Z,0.50
2023-05-14T02:54:12.685Z,0.50
2023-05-14T02:55:16.382Z,0.50
2023-05-14T02:56:20.341Z,1.25
2023-05-14T02:57:24.073Z,0.00
2023-05-14T02:58:28.405Z,0.00
2023-05-14T02:59:32.880Z,0.50
2023-05-14T03:00:37.408Z,1.25
2023-05-14T03:01:42.036Z,1.75
2023-05-14T03:02:45.971Z,1.50
2023-05-14T03:03:50.189Z,1.00
2023-05-14T03:04:54.118Z,0.50
2023-05-14T03:05:57.831Z,0.00
2023-05-14T03:07:01.711Z,0.50
2023-05-14T03:08:05.613Z,0.50
2023-05-14T03:09:09.435Z,0.00
2023-05-14T03:10:13.519Z,1.00
2023-05-14T03:11:16.811Z,1.00
2023-05-14T03:12:20.583Z,0.50
2023-05-14T03:13:24.042Z,0.00
2023-05-14T03:14:27.667Z,0.00
2023-05-14T03:15:31.158Z,0.00
2023-05-14T03:16:34.899Z,0.50
2023-05-14T03:17:38.451Z,0.00
2023-05-14T03:18:42.049Z,0.25
2023-05-14T03:19:45.843Z,0.00
2023-05-14T03:20:49.316Z,0.50
2023-05-14T03:21:53.016Z,1.00
2023-05-14T03:22:56.511Z,1.00
2023-05-14T03:24:00.396Z,1.00
2023-05-14T03:25:04.117Z,1.50
2023-05-14T03:26:07.679Z,1.50
2023-05-14T03:27:10.971Z,0.00
2023-05-14T03:28:14.872Z,0.50
2023-05-14T03:29:18.272Z,0.25
2023-05-14T03:30:22.355Z,0.00
2023-05-14T03:31:26.200Z,0.00
2023-05-14T03:32:29.874Z,0.50
2023-05-14T03:33:33.126Z,0.25
2023-05-14T03:34:37.032Z,0.00
2023-05-14T03:35:40.215Z,0.50
2023-05-14T03:36:43.596Z,0.50
2023-05-14T03:37:47.392Z,0.50
2023-05-14T03:38:50.892Z,0.00
2023-05-14T03:39:54.047Z,0.00
2023-05-14T03:40:57.246Z,0.00
2023-05-14T03:42:00.731Z,0.00
2023-05-14T03:43:03.914Z,0.00
2023-05-14T03:44:07.417Z,0.50
2023-05-14T03:45:10.917Z,0.20
2023-05-14T03:46:14.285Z,0.00
2023-05-14T03:47:17.876Z,0.00
2023-05-14T03:48:21.499Z,0.00
2023-05-14T03:49:25.371Z,0.50
2023-05-14T03:50:28.649Z,0.25
2023-05-14T03:51:31.806Z,0.00
2023-05-14T03:52:35.116Z,0.50
2023-05-14T03:53:38.609Z,1.50
2023-05-14T03:54:42.198Z,1.50
2023-05-14T03:55:45.683Z,-0.25
2023-05-14T03:56:49.384Z,0.50
2023-05-14T03:57:53.084Z,0.00
2023-05-14T03:58:56.458Z,0.25
2023-05-14T04:00:00.206Z,0.00
2023-05-14T04:01:03.861Z,0.00
2023-05-14T04:02:07.245Z,0.00
2023-05-14T04:03:10.953Z,0.00
2023-05-14T04:04:14.688Z,0.00
2023-05-14T04:05:18.010Z,0.50
2023-05-14T04:06:21.509Z,0.00
2023-05-14T04:07:24.906Z,0.00
2023-05-14T04:08:29.711Z,0.00
2023-05-14T04:09:33.514Z,0.50
2023-05-14T04:10:37.196Z,0.25
2023-05-14T04:11:40.476Z,0.00
2023-05-14T04:12:43.998Z,1.00
2023-05-14T04:13:47.247Z,0.75
2023-05-14T04:14:50.634Z,0.25
2023-05-14T04:15:53.959Z,0.00
2023-05-14T04:16:58.234Z,0.00
2023-05-14T04:18:02.021Z,0.00
2023-05-14T04:19:06.141Z,0.00
2023-05-14T04:20:10.382Z,1.00
2023-05-14T04:21:14.847Z,1.00
2023-05-14T04:22:18.952Z,0.25
2023-05-14T04:23:22.542Z,0.00
2023-05-14T04:24:26.039Z,0.00
2023-05-14T04:25:29.929Z,0.00
2023-05-14T04:26:33.621Z,0.00
2023-05-14T04:27:37.436Z,0.00
2023-05-14T04:28:41.132Z,0.00
2023-05-14T04:29:45.224Z,0.50
2023-05-14T04:30:48.709Z,0.00
2023-05-14T04:31:53.361Z,0.00
2023-05-14T04:32:56.881Z,0.00
2023-05-14T04:34:00.706Z,0.00
2023-05-14T04:35:04.402Z,0.00
2023-05-14T04:36:10.858Z,0.00
2023-05-14T04:37:14.323Z,0.00
2023-05-14T04:38:18.245Z,0.00
2023-05-14T04:39:22.137Z,0.00
2023-05-14T04:40:26.332Z,0.00
2023-05-14T04:41:30.794Z,0.00
2023-05-14T04:42:34.475Z,0.00
2023-05-14T04:43:38.774Z,0.00
2023-05-14T04:44:42.260Z,0.00
2023-05-14T04:45:45.918Z,0.00
2023-05-14T04:46:50.464Z,0.00
2023-05-14T04:47:54.671Z,0.00
2023-05-14T04:48:58.769Z,0.00
2023-05-14T04:50:01.958Z,0.00
2023-05-14T04:51:07.124Z,0.00
2023-05-14T04:52:11.812Z,0.00
2023-05-14T04:53:16.107Z,0.00
2023-05-14T04:54:20.142Z,0.00
2023-05-14T04:55:23.797Z,0.00
2023-05-14T04:56:27.194Z,0.25
2023-05-14T04:57:31.015Z,0.00
2023-05-14T04:58:35.256Z,0.00
2023-05-14T04:59:39.412Z,0.00
2023-05-14T05:00:43.818Z,0.00
2023-05-14T05:01:46.676Z,0.00
2023-05-14T05:02:49.922Z,0.00
2023-05-14T05:03:53.589Z,0.00
2023-05-14T05:04:57.580Z,0.00
2023-05-14T05:06:01.808Z,0.00
2023-05-14T05:07:05.443Z,0.00
2023-05-14T05:08:09.164Z,0.00
2023-05-14T05:09:13.049Z,0.00
2023-05-14T05:10:16.744Z,0.00
2023-05-14T05:11:21.574Z,0.00
2023-05-14T05:12:25.574Z,0.00
2023-05-14T05:13:28.970Z,0.00
2023-05-14T05:14:33.206Z,0.00
2023-05-14T05:15:37.383Z,0.00
2023-05-14T05:16:40.910Z,0.00
2023-05-14T05:17:44.152Z,0.00
2023-05-14T05:18:47.493Z,0.00
2023-05-14T05:19:50.817Z,0.00
2023-05-14T05:20:54.811Z,0.00
2023-05-14T05:21:58.235Z,0.00
2023-05-14T05:23:02.021Z,0.00
2023-05-14T05:24:05.801Z,0.00
2023-05-14T05:25:09.884Z,0.00
2023-05-14T05:26:14.622Z,0.00
2023-05-14T05:27:18.616Z,0.00
2023-05-14T05:28:22.409Z,0.00
2023-05-14T05:29:26.001Z,0.00
2023-05-14T05:30:29.713Z,0.00
2023-05-14T05:31:32.972Z,0.00
2023-05-14T05:32:36.878Z,0.00
2023-05-14T05:33:41.211Z,0.00
2023-05-14T05:34:45.802Z,0.00
2023-05-14T05:35:49.100Z,0.00
2023-05-14T05:36:53.059Z,0.00
2023-05-14T05:37:58.542Z,0.00
2023-05-14T05:39:02.312Z,0.00
2023-05-14T05:40:06.328Z,0.00
2023-05-14T05:41:10.744Z,0.00
2023-05-14T05:42:14.859Z,0.00
2023-05-14T05:43:18.424Z,0.00
2023-05-14T05:44:22.438Z,0.00
2023-05-14T05:45:26.131Z,0.00
2023-05-14T05:46:30.062Z,0.00
2023-05-14T05:47:34.141Z,0.00
2023-05-14T05:48:38.052Z,0.00
2023-05-14T05:49:41.721Z,0.00
2023-05-14T05:50:45.400Z,0.00
2023-05-14T05:51:48.906Z,0.00
2023-05-14T05:52:52.385Z,0.00
2023-05-14T05:53:56.101Z,0.00
2023-05-14T05:54:59.872Z,0.00
2023-05-14T05:56:03.410Z,0.00
2023-05-14T05:57:06.868Z,0.00
2023-05-14T05:58:10.668Z,0.00
2023-05-14T05:59:13.843Z,0.00
2023-05-14T06:00:18.449Z,0.00
2023-05-14T06:01:22.139Z,0.00
2023-05-14T06:02:25.141Z,0.00
2023-05-14T06:03:29.420Z,0.00
2023-05-14T06:04:33.217Z,0.00
2023-05-14T06:05:36.755Z,0.00
2023-05-14T06:06:40.322Z,0.00
2023-05-14T06:07:43.920Z,0.00
2023-05-14T06:08:47.497Z,0.00
2023-05-14T06:09:51.196Z,0.00
2023-05-14T06:10:54.366Z,0.00
2023-05-14T06:11:57.761Z,0.00
2023-05-14T06:13:01.243Z,0.00
2023-05-14T06:14:04.728Z,0.00
2023-05-14T06:15:08.108Z,0.00
2023-05-14T06:16:11.604Z,0.00
2023-05-14T06:17:15.291Z,0.00
2023-05-14T06:18:19.009Z,0.00
2023-05-14T06:19:22.105Z,0.00
2023-05-14T06:20:26.501Z,0.00
2023-05-14T06:21:30.286Z,0.00
2023-05-14T06:22:33.831Z,0.00
2023-05-14T06:23:37.116Z,0.00
2023-05-14T06:24:41.246Z,0.00
2023-05-14T06:25:45.261Z,0.00
2023-05-14T06:26:48.859Z,0.00
2023-05-14T06:27:52.437Z,0.00
2023-05-14T06:28:56.330Z,0.00
2023-05-14T06:29:59.632Z,0.00
2023-05-14T06:31:03.417Z,0.00
2023-05-14T06:32:07.208Z,0.00
2023-05-14T06:33:10.730Z,0.00
2023-05-14T06:34:13.990Z,0.00
2023-05-14T06:35:17.679Z,0.00
2023-05-14T06:36:21.070Z,0.50
2023-05-14T06:37:24.345Z,0.50
2023-05-14T06:38:28.259Z,0.25
2023-05-14T06:39:31.948Z,0.00
2023-05-14T06:40:35.328Z,0.00
2023-05-14T06:41:39.028Z,0.00
2023-05-14T06:42:42.819Z,0.00
2023-05-14T06:43:45.898Z,1.00
2023-05-14T06:44:49.597Z,0.25
2023-05-14T06:45:52.905Z,0.00
2023-05-14T06:46:59.237Z,0.00
2023-05-14T06:48:02.738Z,0.00
2023-05-14T06:49:06.380Z,0.00
2023-05-14T06:50:10.822Z,0.00
2023-05-14T06:51:14.321Z,0.00
2023-05-14T06:52:18.239Z,0.00
2023-05-14T06:53:21.809Z,0.00
2023-05-14T06:54:25.206Z,0.00
2023-05-14T06:55:28.577Z,0.00
2023-05-14T06:56:31.874Z,0.00
2023-05-14T06:57:35.874Z,0.00
2023-05-14T06:58:39.965Z,0.00
2023-05-14T06:59:43.839Z,0.00
2023-05-14T07:00:47.154Z,0.00
2023-05-14T07:01:50.712Z,0.00
2023-05-14T07:02:53.744Z,0.00
2023-05-14T07:03:57.951Z,0.50
2023-05-14T07:05:01.718Z,0.25
2023-05-14T07:06:05.727Z,0.00
2023-05-14T07:07:08.836Z,0.00
2023-05-14T07:08:12.270Z,0.00
2023-05-14T07:09:15.585Z,0.00
2023-05-14T07:10:18.863Z,0.00
2023-05-14T07:11:22.868Z,0.50
2023-05-14T07:12:26.451Z,0.50
2023-05-14T07:13:31.070Z,0.00
2023-05-14T07:14:34.252Z,0.00
2023-05-14T07:15:38.069Z,0.00
2023-05-14T07:16:41.633Z,0.00
2023-05-14T07:17:45.600Z,0.00
2023-05-14T07:18:49.180Z,0.50
2023-05-14T07:19:52.955Z,0.50
2023-05-14T07:20:56.521Z,1.00
2023-05-14T07:21:59.796Z,0.75
2023-05-14T07:23:02.988Z,0.00
2023-05-14T07:24:06.675Z,0.00
2023-05-14T07:25:10.314Z,0.00
2023-05-14T07:26:13.857Z,0.00
2023-05-14T07:27:17.246Z,0.50
2023-05-14T07:28:20.936Z,0.50
2023-05-14T07:29:24.436Z,1.00
2023-05-14T07:30:27.849Z,1.00
2023-05-14T07:31:31.459Z,1.00
2023-05-14T07:32:34.962Z,0.25
2023-05-14T07:33:39.309Z,0.50
2023-05-14T07:34:43.302Z,1.00
2023-05-14T07:35:46.605Z,1.50
2023-05-14T07:36:50.079Z,2.00
2023-05-14T07:37:53.674Z,2.00
2023-05-14T07:38:57.070Z,1.50
2023-05-14T07:40:00.659Z,2.00
2023-05-14T07:41:03.931Z,2.00
2023-05-14T07:42:07.952Z,3.00
2023-05-14T07:43:11.746Z,5.00
2023-05-14T07:44:15.341Z,5.00
2023-05-14T07:45:19.009Z,4.00
2023-05-14T07:46:22.504Z,4.00
2023-05-14T07:47:26.709Z,3.50
2023-05-14T07:48:31.101Z,3.50
2023-05-14T07:49:35.425Z,3.00
2023-05-14T07:50:39.097Z,3.00
2023-05-14T07:51:42.685Z,4.00
2023-05-14T07:52:46.323Z,3.50
2023-05-14T07:53:50.616Z,3.00
2023-05-14T07:54:54.047Z,3.00
2023-05-14T07:55:57.905Z,2.50
2023-05-14T07:57:01.507Z,1.50
2023-05-14T07:58:05.285Z,1.50
2023-05-14T07:59:08.986Z,1.50
2023-05-14T08:00:12.888Z,1.00
2023-05-14T08:01:16.606Z,1.50
2023-05-14T08:02:20.434Z,1.25
2023-05-14T08:03:25.078Z,2.00
2023-05-14T08:04:28.749Z,2.50
2023-05-14T08:05:32.811Z,2.50
2023-05-14T08:06:36.679Z,2.00
2023-05-14T08:07:40.787Z,2.50
2023-05-14T08:08:44.182Z,2.50
2023-05-14T08:09:47.786Z,2.50
2023-05-14T08:10:51.713Z,2.00
2023-05-14T08:11:55.457Z,2.00
2023-05-14T08:12:59.148Z,2.00
2023-05-14T08:14:02.641Z,1.50
2023-05-14T08:15:06.375Z,1.00
2023-05-14T08:16:09.718Z,1.50
2023-05-14T08:17:16.634Z,1.50
2023-05-14T08:18:20.291Z,1.50
2023-05-14T08:19:23.708Z,1.50
2023-05-14T08:20:27.817Z,1.50
2023-05-14T08:21:32.087Z,1.25
2023-05-14T08:22:35.901Z,1.50
2023-05-14T08:23:39.685Z,1.50
2023-05-14T08:24:46.238Z,2.00
2023-05-14T08:25:50.047Z,2.00
2023-05-14T08:26:53.525Z,2.00
2023-05-14T08:27:56.944Z,1.50
2023-05-14T08:29:00.294Z,1.25
2023-05-14T08:30:03.886Z,1.00
2023-05-14T08:31:07.742Z,1.00
2023-05-14T08:32:22.617Z,1.50
2023-05-14T08:33:18.252Z,1.00
2023-05-14T08:34:21.646Z,2.00
2023-05-14T08:35:25.329Z,2.00
2023-05-14T08:36:28.615Z,2.00
2023-05-14T08:37:31.999Z,1.50
2023-05-14T08:38:35.504Z,1.00
2023-05-14T08:39:38.687Z,1.50
2023-05-14T08:40:42.366Z,1.25
2023-05-14T08:41:46.156Z,1.00
2023-05-14T08:42:49.554Z,1.00
2023-05-14T08:43:53.159Z,1.00
2023-05-14T08:44:56.392Z,1.75
2023-05-14T08:46:00.023Z,1.00
2023-05-14T08:47:03.302Z,1.50
2023-05-14T08:48:06.754Z,1.00
2023-05-14T08:49:10.496Z,1.50
2023-05-14T08:50:14.152Z,2.00
2023-05-14T08:51:18.174Z,2.00
2023-05-14T08:52:22.064Z,2.00
2023-05-14T08:53:25.974Z,2.50
2023-05-14T08:54:29.443Z,2.50
2023-05-14T08:55:33.099Z,2.50
2023-05-14T08:56:36.694Z,4.00
2023-05-14T08:57:40.542Z,4.50
2023-05-14T08:58:44.144Z,4.50
2023-05-14T08:59:48.046Z,4.50
2023-05-14T09:00:51.628Z,5.00
2023-05-14T09:01:55.341Z,4.25
2023-05-14T09:02:59.538Z,4.25
2023-05-14T09:04:03.446Z,4.00
2023-05-14T09:05:07.362Z,4.00
2023-05-14T09:06:10.705Z,3.50
2023-05-14T09:07:14.294Z,3.50
2023-05-14T09:08:17.684Z,3.75
2023-05-14T09:09:21.168Z,4.25
2023-05-14T09:10:24.701Z,4.00
2023-05-14T09:11:28.760Z,3.00
2023-05-14T09:12:32.273Z,3.50
2023-05-14T09:13:35.642Z,3.50
2023-05-14T09:14:39.067Z,4.00
2023-05-14T09:15:43.025Z,3.50
2023-05-14T09:16:46.627Z,3.00
2023-05-14T09:17:50.393Z,3.00
2023-05-14T09:18:53.938Z,3.50
2023-05-14T09:19:57.284Z,4.00
2023-05-14T09:21:02.733Z,4.00
2023-05-14T09:22:06.112Z,4.50
2023-05-14T09:23:10.016Z,3.50
2023-05-14T09:24:13.698Z,4.00
2023-05-14T09:25:17.915Z,4.50
2023-05-14T09:26:21.802Z,4.00
2023-05-14T09:27:25.908Z,4.00
2023-05-14T09:28:29.536Z,3.00
2023-05-14T09:29:33.405Z,3.00
2023-05-14T09:30:37.305Z,3.75
2023-05-14T09:31:40.766Z,4.00
2023-05-14T09:32:44.564Z,4.00
2023-05-14T09:33:48.102Z,4.00
2023-05-14T09:34:51.169Z,4.00
2023-05-14T09:35:54.854Z,4.50
2023-05-14T09:36:59.366Z,5.00
2023-05-14T09:38:03.655Z,5.00
2023-05-14T09:39:07.160Z,4.75
2023-05-14T09:40:10.761Z,4.00
2023-05-14T09:41:14.553Z,4.00
2023-05-14T09:42:18.959Z,4.50
2023-05-14T09:43:22.210Z,4.00
2023-05-14T09:44:25.461Z,4.00
2023-05-14T09:45:29.034Z,3.50
2023-05-14T09:46:32.726Z,3.50
2023-05-14T09:47:36.440Z,4.00
2023-05-14T09:48:39.613Z,4.00
2023-05-14T09:49:42.760Z,4.50
2023-05-14T09:50:46.677Z,5.00
2023-05-14T09:51:50.844Z,4.50
2023-05-14T09:52:54.399Z,5.00
2023-05-14T09:53:58.357Z,4.50
2023-05-14T09:55:03.293Z,4.50
2023-05-14T09:56:06.956Z,4.75
2023-05-14T09:57:12.037Z,5.00
2023-05-14T09:58:16.171Z,4.75
2023-05-14T09:59:19.507Z,4.50
2023-05-14T10:00:25.426Z,4.50
2023-05-14T10:01:29.512Z,5.00
2023-05-14T10:02:33.031Z,4.50
2023-05-14T10:03:37.160Z,4.00
2023-05-14T10:04:40.618Z,4.00
2023-05-14T10:05:51.244Z,4.00
2023-05-14T10:06:54.983Z,5.00
2023-05-14T10:07:58.289Z,6.50
2023-05-14T10:09:03.493Z,7.00
2023-05-14T10:10:07.620Z,6.00
2023-05-14T10:11:10.994Z,6.50
2023-05-14T10:12:14.873Z,6.50
2023-05-14T10:13:18.685Z,6.00
2023-05-14T10:14:21.953Z,5.00
2023-05-14T10:15:26.285Z,4.25
2023-05-14T10:16:29.644Z,4.00
2023-05-14T10:17:32.978Z,4.00
2023-05-14T10:18:36.475Z,4.00
2023-05-14T10:19:40.027Z,4.00
2023-05-14T10:20:45.121Z,4.00
2023-05-14T10:21:51.893Z,4.50
2023-05-14T10:22:55.307Z,4.25
2023-05-14T10:23:58.796Z,4.00
2023-05-14T10:25:02.476Z,3.25
2023-05-14T10:26:15.555Z,3.50
2023-05-14T10:27:26.141Z,5.00
2023-05-14T10:28:43.150Z,5.00
2023-05-14T10:29:46.549Z,5.50
2023-05-14T10:33:32.452Z,5.00
2023-05-14T10:34:37.475Z,4.50
2023-05-14T10:35:41.478Z,5.00
2023-05-14T10:36:47.148Z,5.00
2023-05-14T10:37:50.955Z,5.00
2023-05-14T10:38:54.495Z,5.00
2023-05-14T10:40:02.853Z,4.50
2023-05-14T10:41:06.383Z,4.50
2023-05-14T10:42:09.884Z,5.00
2023-05-14T10:43:14.194Z,5.50
2023-05-14T10:44:17.771Z,4.50
2023-05-14T10:45:24.778Z,4.00
2023-05-14T10:46:28.255Z,4.00
2023-05-14T10:47:35.052Z,3.50
2023-05-14T10:48:42.488Z,3.00
2023-05-14T10:49:46.283Z,3.00
2023-05-14T10:53:14.473Z,3.50
2023-05-14T10:54:17.962Z,3.00
2023-05-14T10:56:38.249Z,3.00
2023-05-14T10:57:49.037Z,3.50
2023-05-14T10:58:55.584Z,4.00
2023-05-14T11:00:09.956Z,3.50
2023-05-14T11:01:13.873Z,4.00
2023-05-14T11:02:17.596Z,4.50
2023-05-14T11:03:24.058Z,5.00
2023-05-14T11:04:33.356Z,4.50
2023-05-14T11:05:55.013Z,4.50
2023-05-14T11:07:05.458Z,4.50
2023-05-14T11:08:08.953Z,6.50
2023-05-14T11:09:14.074Z,7.00
2023-05-14T11:10:19.014Z,6.00
2023-05-14T11:11:23.010Z,5.00
2023-05-14T11:12:26.407Z,5.50
2023-05-14T11:13:31.016Z,5.50
2023-05-14T11:14:35.648Z,6.00
2023-05-14T11:15:40.462Z,5.50
2023-05-14T11:16:44.153Z,4.50
2023-05-14T11:17:47.773Z,4.00
2023-05-14T11:18:52.989Z,4.25
2023-05-14T11:19:56.375Z,3.50
2023-05-14T11:21:00.156Z,4.00
2023-05-14T11:22:06.611Z,4.00
2023-05-14T11:23:10.908Z,3.50
2023-05-14T11:24:19.735Z,3.50
2023-05-14T11:25:24.032Z,4.00
2023-05-14T11:26:28.265Z,3.50
2023-05-14T11:27:39.826Z,3.00
2023-05-14T11:28:43.301Z,3.00
2023-05-14T11:29:46.990Z,4.00
2023-05-14T11:30:51.468Z,3.00
2023-05-14T11:31:57.867Z,3.00
2023-05-14T11:33:02.085Z,3.00
2023-05-14T11:34:05.208Z,3.00
2023-05-14T11:35:08.745Z,3.50
2023-05-14T11:36:12.472Z,4.25
2023-05-14T11:37:17.060Z,4.50
2023-05-14T11:38:21.070Z,4.00
2023-05-14T11:39:25.765Z,3.50
2023-05-14T11:40:28.557Z,3.50
2023-05-14T11:41:32.166Z,3.00
2023-05-14T11:42:36.033Z,4.00
2023-05-14T11:43:39.836Z,4.50
2023-05-14T11:44:46.288Z,4.25
2023-05-14T11:45:49.695Z,4.00
2023-05-14T11:46:53.157Z,4.00
2023-05-14T11:47:56.885Z,4.00
2023-05-14T11:49:00.650Z,4.00
2023-05-14T11:50:06.780Z,4.50
2023-05-14T11:51:10.184Z,4.50
2023-05-14T11:52:13.592Z,4.00
2023-05-14T11:53:17.265Z,3.50
2023-05-14T11:54:21.485Z,4.00
2023-05-14T11:55:25.263Z,4.50
2023-05-14T11:56:35.565Z,4.00
2023-05-14T11:57:38.712Z,4.50
2023-05-14T11:58:42.200Z,4.00
2023-05-14T11:59:45.871Z,4.00
2023-05-14T12:00:54.835Z,4.50
2023-05-14T12:01:58.294Z,4.50
2023-05-14T12:03:02.083Z,4.75
2023-05-14T12:04:11.543Z,5.00
2023-05-14T12:05:18.310Z,5.00
2023-05-14T12:06:21.655Z,5.00
2023-05-14T12:07:26.278Z,5.00
2023-05-14T12:08:32.558Z,5.00
2023-05-14T12:09:38.903Z,4.00
2023-05-14T12:10:42.075Z,3.50
2023-05-14T12:11:45.892Z,3.00
2023-05-14T12:12:50.680Z,3.00
2023-05-14T12:13:55.521Z,4.00
2023-05-14T12:15:01.033Z,4.00
2023-05-14T12:16:10.132Z,4.00
2023-05-14T12:18:34.753Z,4.00
2023-05-14T12:19:38.546Z,3.00
2023-05-14T12:20:41.824Z,2.50
2023-05-14T12:21:46.137Z,3.25
2023-05-14T12:22:51.305Z,3.50
2023-05-14T12:23:54.863Z,2.50
2023-05-14T12:24:58.056Z,2.50
2023-05-14T12:26:01.330Z,2.50
2023-05-14T12:27:06.152Z,3.00
2023-05-14T12:28:10.245Z,3.00
2023-05-14T12:29:13.460Z,3.00
2023-05-14T12:30:27.557Z,3.50
2023-05-14T12:31:21.696Z,3.50
2023-05-14T12:32:25.180Z,3.50
2023-05-14T12:33:30.561Z,3.75
2023-05-14T12:34:37.211Z,3.50
2023-05-14T12:35:40.416Z,3.00
2023-05-14T12:36:44.003Z,3.75
2023-05-14T12:37:48.021Z,3.75
2023-05-14T12:38:51.483Z,4.50
2023-05-14T12:39:54.989Z,4.00
2023-05-14T12:40:58.465Z,3.00
2023-05-14T12:42:01.968Z,3.50
2023-05-14T12:43:05.546Z,4.00
2023-05-14T12:44:08.941Z,4.00
2023-05-14T12:45:12.827Z,4.00
2023-05-14T12:46:18.692Z,4.00
2023-05-14T12:47:22.247Z,4.00
2023-05-14T12:48:26.185Z,5.00
2023-05-14T12:49:29.972Z,4.50
2023-05-14T12:50:33.458Z,4.00
2023-05-14T12:51:36.737Z,4.50
2023-05-14T12:52:41.350Z,5.00
2023-05-14T12:53:44.940Z,5.00
2023-05-14T12:54:48.842Z,5.50
2023-05-14T12:55:52.436Z,5.50
2023-05-14T12:56:56.345Z,5.50
2023-05-14T12:57:59.731Z,5.50
2023-05-14T12:59:03.412Z,5.50
2023-05-14T13:00:06.980Z,6.50
2023-05-14T13:01:10.718Z,6.00
2023-05-14T13:02:15.415Z,5.50
2023-05-14T13:03:18.442Z,6.50
2023-05-14T13:04:22.134Z,7.00
2023-05-14T13:05:25.753Z,7.00
2023-05-14T13:06:29.589Z,7.75
2023-05-14T13:07:34.105Z,7.00
2023-05-14T13:08:37.989Z,7.00
2023-05-14T13:09:42.479Z,7.50
2023-05-14T13:10:46.091Z,7.00
2023-05-14T13:11:50.194Z,7.50
2023-05-14T13:12:57.128Z,7.50
2023-05-14T13:14:00.861Z,7.00
2023-05-14T13:15:04.668Z,7.00
2023-05-14T13:16:09.615Z,8.00
2023-05-14T13:17:13.275Z,7.50
2023-05-14T13:18:17.072Z,7.50
2023-05-14T13:19:20.661Z,7.50
2023-05-14T13:20:27.239Z,7.50
2023-05-14T13:21:30.510Z,6.25
2023-05-14T13:22:34.422Z,7.50
2023-05-14T13:23:37.489Z,7.00
2023-05-14T13:24:40.462Z,7.00
2023-05-14T13:25:44.594Z,7.00
2023-05-14T13:26:48.048Z,7.00
2023-05-14T13:27:51.540Z,7.50
2023-05-14T13:28:55.023Z,6.80
2023-05-14T13:30:01.193Z,7.25
2023-05-14T13:31:04.587Z,8.50
2023-05-14T13:32:08.160Z,9.50
2023-05-14T13:33:11.822Z,8.50
2023-05-14T13:34:15.225Z,9.00
2023-05-14T13:35:19.450Z,10.50
2023-05-14T13:36:22.761Z,10.50
2023-05-14T13:37:26.238Z,10.50
2023-05-14T13:38:29.713Z,11.00
2023-05-14T13:39:33.099Z,11.00
2023-05-14T13:40:36.589Z,11.00
2023-05-14T13:41:39.870Z,10.25
2023-05-14T13:42:43.155Z,10.00
2023-05-14T13:43:46.439Z,10.50
2023-05-14T13:44:49.935Z,11.00
2023-05-14T13:45:53.147Z,12.50
2023-05-14T13:46:56.604Z,13.80
2023-05-14T13:48:00.194Z,11.25
2023-05-14T13:49:03.395Z,11.00
2023-05-14T13:50:06.553Z,11.00
2023-05-14T13:51:09.738Z,12.25
2023-05-14T13:52:12.824Z,10.50
2023-05-14T13:53:16.308Z,10.00
2023-05-14T13:54:19.803Z,11.00
2023-05-14T13:55:23.145Z,11.00
2023-05-14T13:56:26.588Z,11.50
2023-05-14T13:57:29.751Z,11.00
2023-05-14T13:58:32.945Z,11.50
2023-05-14T13:59:35.984Z,10.00
2023-05-14T14:00:39.198Z,11.00
2023-05-14T14:01:42.606Z,11.00
2023-05-14T14:02:45.795Z,11.50
2023-05-14T14:03:50.768Z,11.00
2023-05-14T14:04:54.233Z,11.50
2023-05-14T14:05:57.471Z,12.50
2023-05-14T14:07:01.047Z,12.75
2023-05-14T14:08:17.833Z,11.00
2023-05-14T14:09:08.857Z,11.50
2023-05-14T14:10:12.458Z,12.50
2023-05-14T14:11:15.708Z,12.75
2023-05-14T14:12:19.029Z,11.50
2023-05-14T14:13:22.183Z,11.00
2023-05-14T14:14:25.485Z,10.75
2023-05-14T14:15:28.974Z,11.50
2023-05-14T14:16:32.293Z,12.25
2023-05-14T14:17:35.528Z,11.50
2023-05-14T14:18:38.941Z,12.00